CYUY

Rouyn-Noranda Airport

Rouyn-Noranda, , Canada
METAR CYUY 211300Z 14005KT 15SM BKN220 22/15 A3003 RMK CI7 SLP170 DENSITY ALT 2000FT
Observed Flight Rules
Jul-21 @ 13:00 UTC (49 minutes ago) Visual Flight Rules
Wind Visibility Clouds
140° at 5 knots 15 miles
  • Broken at 22,000' AGL
Temperatures Readings
Current 22°C / 72°F
Dewpoint 15°C / 59°F
Humidity 65%
Altimeter 30.03" Hg
Pressure 1017 hPa
Elevation 301
METAR CYUY 211300Z 14005KT 15SM BKN220 22/15 A3003 RMK CI7 SLP170 DENSITY ALT 2000FT
Observed Flight Rules
Jul-21 @ 13:00 UTC
(49 minutes ago)
VFR
Wind Visibility
140° at 5 knots 15 miles
Clouds
  • Broken at 22,000' AGL
Temperature Dewpoint
22°C / 72°F 15°C / 59°F
Humidity Altimeter Pressure
65% 30.03" Hg 1017 hPa